createdAt,value
2019-05-02T00:00:39.028Z,19.32
2019-05-02T00:03:04.377Z,19.32
2019-05-02T00:05:27.331Z,19.31
2019-05-02T00:07:46.145Z,19.29
2019-05-02T00:10:08.267Z,19.29
2019-05-02T00:12:29.243Z,19.28
2019-05-02T00:14:51.094Z,19.28
2019-05-02T00:17:12.802Z,19.26
2019-05-02T00:19:34.467Z,19.25
2019-05-02T00:21:56.252Z,19.24
2019-05-02T00:24:17.676Z,19.23
2019-05-02T00:26:39.500Z,19.22
2019-05-02T00:29:01.110Z,19.22
2019-05-02T00:31:23.159Z,19.21
2019-05-02T00:33:44.653Z,19.20
2019-05-02T00:36:06.681Z,19.20
2019-05-02T00:38:28.307Z,19.18
2019-05-02T00:40:50.019Z,19.17
2019-05-02T00:43:11.879Z,19.17
2019-05-02T00:45:33.471Z,19.16
2019-05-02T00:47:55.399Z,19.16
2019-05-02T00:50:17.017Z,19.15
2019-05-02T00:52:38.750Z,19.14
2019-05-02T00:55:00.462Z,19.14
2019-05-02T00:57:22.411Z,19.13
2019-05-02T00:59:44.419Z,19.12
2019-05-02T01:02:07.217Z,19.11
2019-05-02T01:04:29.244Z,19.11
2019-05-02T01:06:50.837Z,19.09
2019-05-02T01:09:12.985Z,19.09
2019-05-02T01:11:35.189Z,19.08
2019-05-02T01:13:57.722Z,19.08
2019-05-02T01:16:20.320Z,19.06
2019-05-02T01:18:42.585Z,19.06
2019-05-02T01:21:04.377Z,19.04
2019-05-02T01:23:27.551Z,19.05
2019-05-02T01:25:52.783Z,19.03
2019-05-02T01:28:17.723Z,19.03
2019-05-02T01:30:37.308Z,19.03
2019-05-02T01:33:01.393Z,19.02
2019-05-02T01:35:21.664Z,19.01
2019-05-02T01:37:43.637Z,19.00
2019-05-02T01:40:05.525Z,19.00
2019-05-02T01:42:39.271Z,19.00
2019-05-02T01:44:50.679Z,18.99
2019-05-02T01:47:12.334Z,18.98
2019-05-02T01:49:33.973Z,18.96
2019-05-02T01:51:56.099Z,18.97
2019-05-02T01:54:17.978Z,18.97
2019-05-02T01:56:40.007Z,18.96
2019-05-02T01:59:01.262Z,18.94
2019-05-02T02:01:23.376Z,18.94
2019-05-02T02:03:46.963Z,18.93
2019-05-02T02:06:10.109Z,18.92
2019-05-02T02:08:33.938Z,18.92
2019-05-02T02:10:57.882Z,18.92
2019-05-02T02:13:18.382Z,18.91
2019-05-02T02:15:40.351Z,18.91
2019-05-02T02:18:02.341Z,18.89
2019-05-02T02:20:24.610Z,18.89
2019-05-02T02:22:46.948Z,18.89
2019-05-02T02:25:08.654Z,18.89
2019-05-02T02:27:30.945Z,18.88
2019-05-02T02:29:52.441Z,18.88
2019-05-02T02:32:20.206Z,18.86
2019-05-02T02:34:37.233Z,18.87
2019-05-02T02:36:59.234Z,18.86
2019-05-02T02:39:20.746Z,18.87
2019-05-02T02:41:45.150Z,18.86
2019-05-02T02:44:06.655Z,18.85
2019-05-02T02:46:30.641Z,18.84
2019-05-02T02:48:51.699Z,18.84
2019-05-02T02:51:22.768Z,18.83
2019-05-02T02:53:36.308Z,18.82
2019-05-02T02:56:02.026Z,18.82
2019-05-02T02:58:21.417Z,18.82
2019-05-02T03:00:47.602Z,18.82
2019-05-02T03:03:06.889Z,18.81
2019-05-02T03:05:28.801Z,18.80
2019-05-02T03:07:50.948Z,18.80
2019-05-02T03:10:12.515Z,18.79
2019-05-02T03:12:36.206Z,18.79
2019-05-02T03:14:57.041Z,18.79
2019-05-02T03:17:20.434Z,18.79
2019-05-02T03:19:41.797Z,18.78
2019-05-02T03:22:04.229Z,18.78
2019-05-02T03:24:26.325Z,18.78
2019-05-02T03:26:48.624Z,18.78
2019-05-02T03:29:11.811Z,18.77
2019-05-02T03:31:33.499Z,18.75
2019-05-02T03:34:00.172Z,18.77
2019-05-02T03:36:29.002Z,18.77
2019-05-02T03:38:41.651Z,18.76
2019-05-02T03:41:03.394Z,18.75
2019-05-02T03:43:25.823Z,18.74
2019-05-02T03:45:47.858Z,18.74
2019-05-02T03:48:09.333Z,18.75
2019-05-02T03:50:32.702Z,18.74
2019-05-02T03:52:54.481Z,18.73
2019-05-02T03:55:16.546Z,18.73
2019-05-02T03:57:42.001Z,18.72
2019-05-02T04:00:01.578Z,18.72
2019-05-02T04:02:23.463Z,18.72
2019-05-02T04:04:44.638Z,18.71
2019-05-02T04:07:06.266Z,18.72
2019-05-02T04:09:32.088Z,18.71
2019-05-02T04:11:51.906Z,18.71
2019-05-02T04:14:17.506Z,18.71
2019-05-02T04:16:36.685Z,18.71
2019-05-02T04:18:58.683Z,18.70
2019-05-02T04:21:24.334Z,18.71
2019-05-02T04:23:42.881Z,18.71
2019-05-02T04:26:12.098Z,18.71
2019-05-02T04:28:27.752Z,18.72
2019-05-02T04:30:51.294Z,18.71
2019-05-02T04:33:12.391Z,18.71
2019-05-02T04:35:35.189Z,18.69
2019-05-02T04:37:59.257Z,18.69
2019-05-02T04:40:20.298Z,18.68
2019-05-02T04:42:42.090Z,18.68
2019-05-02T04:45:21.406Z,18.69
2019-05-02T04:47:29.046Z,18.67
2019-05-02T04:49:51.981Z,18.68
2019-05-02T04:52:16.958Z,18.65
2019-05-02T04:54:38.868Z,18.61
2019-05-02T04:57:02.557Z,18.58
2019-05-02T04:59:23.083Z,18.55
2019-05-02T05:01:49.813Z,18.55
2019-05-02T05:04:08.266Z,18.55
2019-05-02T05:06:30.270Z,18.54
2019-05-02T05:08:52.385Z,18.54
2019-05-02T05:11:18.430Z,18.51
2019-05-02T05:13:37.556Z,18.53
2019-05-02T05:16:02.920Z,18.55
2019-05-02T05:18:22.505Z,18.55
2019-05-02T05:20:50.478Z,18.56
2019-05-02T05:23:08.285Z,18.55
2019-05-02T05:25:29.489Z,18.55
2019-05-02T05:27:52.677Z,18.53
2019-05-02T05:30:15.868Z,18.53
2019-05-02T05:32:37.641Z,18.53
2019-05-02T05:35:03.271Z,18.53
2019-05-02T05:37:22.815Z,18.46
2019-05-02T05:39:50.907Z,18.46
2019-05-02T05:42:10.672Z,18.48
2019-05-02T05:44:32.668Z,18.48
2019-05-02T05:46:54.021Z,18.50
2019-05-02T05:49:20.025Z,18.49
2019-05-02T05:51:38.797Z,18.53
2019-05-02T05:54:03.194Z,18.56
2019-05-02T05:56:24.230Z,18.60
2019-05-02T05:58:48.167Z,18.60
2019-05-02T06:01:10.385Z,18.63
2019-05-02T06:03:33.991Z,18.66
2019-05-02T06:05:55.256Z,18.67
2019-05-02T06:08:18.525Z,18.68
2019-05-02T06:10:43.906Z,18.72
2019-05-02T06:13:05.199Z,18.73
2019-05-02T06:15:26.862Z,18.74
2019-05-02T06:17:48.243Z,18.74
2019-05-02T06:20:10.298Z,18.77
2019-05-02T06:22:32.465Z,18.79
2019-05-02T06:24:54.470Z,18.78
2019-05-02T06:27:20.702Z,18.75
2019-05-02T06:29:39.781Z,18.75
2019-05-02T06:32:01.807Z,18.79
2019-05-02T06:34:23.484Z,18.82
2019-05-02T06:36:45.670Z,18.82
2019-05-02T06:39:08.081Z,18.84
2019-05-02T06:41:29.478Z,18.84
2019-05-02T06:43:51.527Z,18.87
2019-05-02T06:46:16.326Z,18.89
2019-05-02T06:48:35.710Z,18.89
2019-05-02T06:50:57.944Z,18.89
2019-05-02T06:53:20.097Z,18.90
2019-05-02T06:55:41.982Z,18.91
2019-05-02T06:58:07.998Z,18.92
2019-05-02T07:00:35.390Z,18.92
2019-05-02T07:02:50.022Z,18.91
2019-05-02T07:05:11.768Z,18.91
2019-05-02T07:07:36.984Z,18.92
2019-05-02T07:09:56.439Z,18.93
2019-05-02T07:12:18.610Z,18.93
2019-05-02T07:14:40.829Z,18.93
2019-05-02T07:17:05.710Z,18.96
2019-05-02T07:19:27.258Z,18.95
2019-05-02T07:21:52.997Z,18.98
2019-05-02T07:24:11.800Z,18.98
2019-05-02T07:26:33.917Z,18.98
2019-05-02T07:28:55.952Z,19.00
2019-05-02T07:31:17.555Z,19.01
2019-05-02T07:33:39.155Z,19.01
2019-05-02T07:36:01.486Z,19.02
2019-05-02T07:38:25.678Z,19.02
2019-05-02T07:40:48.086Z,19.02
2019-05-02T07:43:13.474Z,19.02
2019-05-02T07:45:32.583Z,19.02
2019-05-02T07:47:53.836Z,19.02
2019-05-02T07:50:15.741Z,19.03
2019-05-02T07:52:37.348Z,19.03
2019-05-02T07:55:01.081Z,19.04
2019-05-02T07:57:25.220Z,19.04
2019-05-02T07:59:46.039Z,19.04
2019-05-02T08:02:08.046Z,19.05
2019-05-02T08:04:29.865Z,19.05
2019-05-02T08:06:52.003Z,19.05
2019-05-02T08:09:13.553Z,19.06
2019-05-02T08:11:37.043Z,19.06
2019-05-02T08:14:00.457Z,19.05
2019-05-02T08:16:22.324Z,19.06
2019-05-02T08:18:43.815Z,19.07
2019-05-02T08:21:05.836Z,19.07
2019-05-02T08:23:27.987Z,19.09
2019-05-02T08:25:50.242Z,19.10
2019-05-02T08:28:16.012Z,19.11
2019-05-02T08:30:40.419Z,19.12
2019-05-02T08:32:59.369Z,19.13
2019-05-02T08:35:21.121Z,19.13
2019-05-02T08:37:43.167Z,19.12
2019-05-02T08:40:05.300Z,19.11
2019-05-02T08:42:32.671Z,19.12
2019-05-02T08:44:51.674Z,19.13
2019-05-02T08:47:18.985Z,19.15
2019-05-02T08:49:37.312Z,19.16
2019-05-02T08:51:59.061Z,19.17
2019-05-02T08:54:20.128Z,19.18
2019-05-02T08:56:41.709Z,19.20
2019-05-02T08:59:03.018Z,19.21
2019-05-02T09:01:34.564Z,19.21
2019-05-02T09:03:55.311Z,19.22
2019-05-02T09:06:11.267Z,19.22
2019-05-02T09:08:32.773Z,19.22
2019-05-02T09:10:54.030Z,19.24
2019-05-02T09:13:15.856Z,19.25
2019-05-02T09:15:40.492Z,19.25
2019-05-02T09:18:02.852Z,19.27
2019-05-02T09:20:24.726Z,19.26
2019-05-02T09:22:51.435Z,19.26
2019-05-02T09:25:09.506Z,19.26
2019-05-02T09:27:31.883Z,19.25
2019-05-02T09:29:54.034Z,19.24
2019-05-02T09:32:17.086Z,19.23
2019-05-02T09:34:39.094Z,19.22
2019-05-02T09:37:02.684Z,19.23
2019-05-02T09:39:27.352Z,19.21
2019-05-02T09:41:48.515Z,19.22
2019-05-02T09:44:14.569Z,19.21
2019-05-02T09:46:33.755Z,19.19
2019-05-02T09:48:57.080Z,19.19
2019-05-02T09:51:18.741Z,19.18
2019-05-02T09:53:40.462Z,19.19
2019-05-02T09:56:02.345Z,19.19
2019-05-02T09:58:24.111Z,19.17
2019-05-02T10:00:45.836Z,19.17
2019-05-02T10:03:08.230Z,19.17
2019-05-02T10:05:32.243Z,19.16
2019-05-02T10:07:57.589Z,19.18
2019-05-02T10:10:17.443Z,19.15
2019-05-02T10:12:39.616Z,19.17
2019-05-02T10:15:02.311Z,19.16
2019-05-02T10:17:24.828Z,19.14
2019-05-02T10:19:49.579Z,19.15
2019-05-02T10:22:09.836Z,19.16
2019-05-02T10:24:32.329Z,19.15
2019-05-02T10:26:57.096Z,19.14
2019-05-02T10:29:22.827Z,19.15
2019-05-02T10:31:42.093Z,19.15
2019-05-02T10:34:08.347Z,19.15
2019-05-02T10:36:27.246Z,19.16
2019-05-02T10:38:53.293Z,19.15
2019-05-02T10:41:12.308Z,19.16
2019-05-02T10:43:34.489Z,19.15
2019-05-02T10:45:56.819Z,19.15
2019-05-02T10:48:25.881Z,19.15
2019-05-02T10:50:42.310Z,19.14
2019-05-02T10:53:11.219Z,19.15
2019-05-02T10:55:27.618Z,19.15
2019-05-02T10:57:48.902Z,19.14
2019-05-02T11:00:12.035Z,19.14
2019-05-02T11:02:33.510Z,19.14
2019-05-02T11:04:56.745Z,19.14
2019-05-02T11:07:22.682Z,19.14
2019-05-02T11:09:42.025Z,19.13
2019-05-02T11:12:03.718Z,19.13
2019-05-02T11:14:25.778Z,19.14
2019-05-02T11:16:47.338Z,19.14
2019-05-02T11:19:08.972Z,19.15
2019-05-02T11:21:32.212Z,19.16
2019-05-02T11:23:53.646Z,19.15
2019-05-02T11:26:21.446Z,19.15
2019-05-02T11:28:41.614Z,19.15
2019-05-02T11:31:06.849Z,19.17
2019-05-02T11:33:28.170Z,19.17
2019-05-02T11:35:51.562Z,19.19
2019-05-02T11:38:14.806Z,19.17
2019-05-02T11:40:37.317Z,19.19
2019-05-02T11:43:02.896Z,19.20
2019-05-02T11:45:22.700Z,19.20
2019-05-02T11:47:44.645Z,19.20
2019-05-02T11:50:07.775Z,19.22
2019-05-02T11:52:33.104Z,19.22
2019-05-02T11:54:52.471Z,19.23
2019-05-02T11:57:14.471Z,19.24
2019-05-02T11:59:37.202Z,19.24
2019-05-02T12:02:00.146Z,19.27
2019-05-02T12:04:22.023Z,19.29
2019-05-02T12:06:43.993Z,19.32
2019-05-02T12:09:05.602Z,19.36
2019-05-02T12:11:27.600Z,19.38
2019-05-02T12:13:54.788Z,19.40
2019-05-02T12:16:12.688Z,19.42
2019-05-02T12:18:34.535Z,19.44
2019-05-02T12:20:56.573Z,19.47
2019-05-02T12:23:17.784Z,19.48
2019-05-02T12:25:39.815Z,19.48
2019-05-02T12:28:02.338Z,19.49
2019-05-02T12:30:23.881Z,19.50
2019-05-02T12:32:46.415Z,19.51
2019-05-02T12:35:07.902Z,19.52
2019-05-02T12:37:29.405Z,19.52
2019-05-02T12:39:51.724Z,19.56
2019-05-02T12:42:13.476Z,19.58
2019-05-02T12:44:35.167Z,19.58
2019-05-02T12:46:56.598Z,19.59
2019-05-02T12:49:26.865Z,19.60
2019-05-02T12:51:42.891Z,19.60
2019-05-02T12:54:05.165Z,19.62
2019-05-02T12:56:27.100Z,19.62
2019-05-02T12:58:48.774Z,19.63
2019-05-02T13:01:12.282Z,19.65
2019-05-02T13:03:33.283Z,19.66
2019-05-02T13:05:55.009Z,19.66
2019-05-02T13:08:16.777Z,19.65
2019-05-02T13:10:38.068Z,19.65
2019-05-02T13:13:00.076Z,19.65
2019-05-02T13:15:22.041Z,19.65
2019-05-02T13:17:48.929Z,19.64
2019-05-02T13:20:08.711Z,19.64
2019-05-02T13:22:32.382Z,19.62
2019-05-02T13:24:54.949Z,19.61
2019-05-02T13:27:16.904Z,19.61
2019-05-02T13:29:38.281Z,19.61
2019-05-02T13:32:01.643Z,19.62
2019-05-02T13:34:24.231Z,19.61
2019-05-02T13:36:45.500Z,19.61
2019-05-02T13:39:07.628Z,19.61
2019-05-02T13:41:29.694Z,19.60
2019-05-02T13:43:52.456Z,19.60
2019-05-02T13:46:13.391Z,19.60
2019-05-02T13:48:35.235Z,19.58
2019-05-02T13:50:57.589Z,19.59
2019-05-02T13:53:19.679Z,19.58
2019-05-02T13:55:42.695Z,19.56
2019-05-02T13:58:13.853Z,19.55
2019-05-02T14:00:35.329Z,19.54
2019-05-02T14:02:56.930Z,19.53
2019-05-02T14:05:18.565Z,19.51
2019-05-02T14:07:40.389Z,19.51
2019-05-02T14:10:02.443Z,19.50
2019-05-02T14:12:24.484Z,19.49
2019-05-02T14:14:46.067Z,19.47
2019-05-02T14:17:08.917Z,19.47
2019-05-02T14:19:31.938Z,19.46
2019-05-02T14:21:54.436Z,19.45
2019-05-02T14:24:16.182Z,19.44
2019-05-02T14:26:38.286Z,19.43
2019-05-02T14:28:59.852Z,19.42
2019-05-02T14:31:21.777Z,19.43
2019-05-02T14:33:43.653Z,19.41
2019-05-02T14:36:05.691Z,19.42
2019-05-02T14:38:27.718Z,19.39
2019-05-02T14:40:49.569Z,19.39
2019-05-02T14:43:12.895Z,19.37
2019-05-02T14:45:34.107Z,19.38
2019-05-02T14:48:00.493Z,19.37
2019-05-02T14:50:24.274Z,19.36
2019-05-02T14:52:45.711Z,19.35
2019-05-02T14:55:06.405Z,19.34
2019-05-02T14:57:28.785Z,19.34
2019-05-02T14:59:59.076Z,19.35
2019-05-02T15:02:13.254Z,19.32
2019-05-02T15:04:38.299Z,19.31
2019-05-02T15:06:58.601Z,19.29
2019-05-02T15:09:22.545Z,19.25
2019-05-02T15:11:45.900Z,19.23
2019-05-02T15:14:11.435Z,19.22
2019-05-02T15:16:40.438Z,19.18
2019-05-02T15:18:56.904Z,19.18
2019-05-02T15:21:16.435Z,19.06
2019-05-02T15:23:38.277Z,19.03
2019-05-02T15:26:00.028Z,19.04
2019-05-02T15:28:22.848Z,19.05
2019-05-02T15:30:49.397Z,19.04
2019-05-02T15:33:08.409Z,19.04
2019-05-02T15:35:31.783Z,19.05
2019-05-02T15:37:56.733Z,19.03
2019-05-02T15:40:42.903Z,19.03
2019-05-02T15:42:42.219Z,19.01
2019-05-02T15:45:05.573Z,18.99
2019-05-02T15:47:28.185Z,18.98
2019-05-02T15:49:50.413Z,18.97
2019-05-02T15:52:12.573Z,18.98
2019-05-02T15:54:34.622Z,18.97
2019-05-02T15:57:02.878Z,18.97
2019-05-02T15:59:22.292Z,18.96
2019-05-02T16:01:47.369Z,18.95
2019-05-02T16:04:07.364Z,18.96
2019-05-02T16:06:31.578Z,18.95
2019-05-02T16:08:52.935Z,18.96
2019-05-02T16:11:16.974Z,19.00
2019-05-02T16:13:37.189Z,19.03
2019-05-02T16:16:02.250Z,19.05
2019-05-02T16:18:23.372Z,19.06
2019-05-02T16:20:48.713Z,19.06
2019-05-02T16:23:09.198Z,19.09
2019-05-02T16:25:32.018Z,19.10
2019-05-02T16:27:57.486Z,19.11
2019-05-02T16:30:17.099Z,19.11
2019-05-02T16:32:38.806Z,19.11
2019-05-02T16:35:02.782Z,19.09
2019-05-02T16:37:23.519Z,19.08
2019-05-02T16:39:49.434Z,19.07
2019-05-02T16:42:08.285Z,19.06
2019-05-02T16:44:29.917Z,19.06
2019-05-02T16:46:52.102Z,19.06
2019-05-02T16:49:18.481Z,19.07
2019-05-02T16:51:37.644Z,19.09
2019-05-02T16:54:01.630Z,19.10
2019-05-02T16:56:22.870Z,19.08
2019-05-02T16:58:47.011Z,19.11
2019-05-02T17:01:09.019Z,19.12
2019-05-02T17:03:31.613Z,19.15
2019-05-02T17:05:54.417Z,19.17
2019-05-02T17:08:19.887Z,19.18
2019-05-02T17:10:42.103Z,19.29
2019-05-02T17:13:03.389Z,19.34
2019-05-02T17:15:26.297Z,19.42
2019-05-02T17:17:48.170Z,19.49
2019-05-02T17:20:12.909Z,19.57
2019-05-02T17:22:33.662Z,19.63
2019-05-02T17:24:57.128Z,19.70
2019-05-02T17:27:20.629Z,19.70
2019-05-02T17:29:43.184Z,19.71
2019-05-02T17:32:05.097Z,19.73
2019-05-02T17:34:30.828Z,19.73
2019-05-02T17:36:51.972Z,19.73
2019-05-02T17:39:14.479Z,19.73
2019-05-02T17:41:37.098Z,19.72
2019-05-02T17:43:59.310Z,19.73
2019-05-02T17:46:23.670Z,19.73
2019-05-02T17:48:47.640Z,19.74
2019-05-02T17:51:07.681Z,19.75
2019-05-02T17:53:33.789Z,19.75
2019-05-02T17:55:52.677Z,19.78
2019-05-02T17:58:16.510Z,19.78
2019-05-02T18:00:37.370Z,19.77
2019-05-02T18:02:58.984Z,19.75
2019-05-02T18:05:21.683Z,19.75
2019-05-02T18:07:44.254Z,19.77
2019-05-02T18:10:14.339Z,19.78
2019-05-02T18:12:29.506Z,19.78
2019-05-02T18:14:59.095Z,19.79
2019-05-02T18:17:17.236Z,19.77
2019-05-02T18:19:38.875Z,19.77
2019-05-02T18:22:03.527Z,19.80
2019-05-02T18:24:24.675Z,19.80
2019-05-02T18:26:46.909Z,19.80
2019-05-02T18:29:09.719Z,19.80
2019-05-02T18:31:34.905Z,19.80
2019-05-02T18:33:55.371Z,19.80
2019-05-02T18:36:22.342Z,19.78
2019-05-02T18:38:41.780Z,19.75
2019-05-02T18:41:06.026Z,19.73
2019-05-02T18:43:26.491Z,19.71
2019-05-02T18:45:48.419Z,19.71
2019-05-02T18:48:09.701Z,19.67
2019-05-02T18:50:32.013Z,19.66
2019-05-02T18:52:53.425Z,19.64
2019-05-02T18:55:17.148Z,19.61
2019-05-02T18:57:37.689Z,19.60
2019-05-02T18:59:59.467Z,19.58
2019-05-02T19:02:21.642Z,19.55
2019-05-02T19:04:43.740Z,19.54
2019-05-02T19:07:07.638Z,19.53
2019-05-02T19:09:30.471Z,19.55
2019-05-02T19:12:04.819Z,19.54
2019-05-02T19:14:16.615Z,19.55
2019-05-02T19:16:42.655Z,19.57
2019-05-02T19:19:05.156Z,19.55
2019-05-02T19:21:32.069Z,19.55
2019-05-02T19:23:51.694Z,19.58
2019-05-02T19:26:15.366Z,19.60
2019-05-02T19:28:38.412Z,19.61
2019-05-02T19:31:03.066Z,19.62
2019-05-02T19:33:23.504Z,19.61
2019-05-02T19:35:46.925Z,19.62
2019-05-02T19:38:08.805Z,19.62
2019-05-02T19:40:31.842Z,19.61
2019-05-02T19:42:57.247Z,19.64
2019-05-02T19:45:17.047Z,19.66
2019-05-02T19:47:39.312Z,19.68
2019-05-02T19:50:03.030Z,19.68
2019-05-02T19:52:28.562Z,19.69
2019-05-02T19:54:48.228Z,19.70
2019-05-02T19:57:11.849Z,19.70
2019-05-02T19:59:33.494Z,19.72
2019-05-02T20:01:56.888Z,19.72
2019-05-02T20:04:19.532Z,19.73
2019-05-02T20:06:41.836Z,19.72
2019-05-02T20:09:04.789Z,19.73
2019-05-02T20:11:28.006Z,19.76
2019-05-02T20:13:50.629Z,19.78
2019-05-02T20:16:12.525Z,19.78
2019-05-02T20:18:42.386Z,19.79
2019-05-02T20:20:57.884Z,19.80
2019-05-02T20:23:28.332Z,19.79
2019-05-02T20:25:43.298Z,19.80
2019-05-02T20:28:05.801Z,19.80
2019-05-02T20:30:27.296Z,19.81
2019-05-02T20:32:48.706Z,19.79
2019-05-02T20:35:11.953Z,19.78
2019-05-02T20:37:33.530Z,19.76
2019-05-02T20:39:55.787Z,19.74
2019-05-02T20:42:17.987Z,19.71
2019-05-02T20:44:41.895Z,19.70
2019-05-02T20:47:03.279Z,19.67
2019-05-02T20:49:25.343Z,19.65
2019-05-02T20:51:47.220Z,19.63
2019-05-02T20:54:08.241Z,19.61
2019-05-02T20:56:31.939Z,19.60
2019-05-02T20:58:53.630Z,19.59
2019-05-02T21:01:15.897Z,19.55
2019-05-02T21:03:37.191Z,19.54
2019-05-02T21:05:59.209Z,19.51
2019-05-02T21:08:24.961Z,19.51
2019-05-02T21:10:47.152Z,19.49
2019-05-02T21:13:08.755Z,19.47
2019-05-02T21:15:32.358Z,19.44
2019-05-02T21:17:53.475Z,19.43
2019-05-02T21:20:15.663Z,19.42
2019-05-02T21:22:37.620Z,19.40
2019-05-02T21:24:59.211Z,19.39
2019-05-02T21:27:21.818Z,19.37
2019-05-02T21:29:43.946Z,19.36
2019-05-02T21:32:05.674Z,19.34
2019-05-02T21:34:27.376Z,19.34
2019-05-02T21:36:49.453Z,19.31
2019-05-02T21:39:12.829Z,19.30
2019-05-02T21:41:35.544Z,19.28
2019-05-02T21:43:57.787Z,19.28
2019-05-02T21:46:19.820Z,19.26
2019-05-02T21:48:42.013Z,19.25
2019-05-02T21:51:03.693Z,19.24
2019-05-02T21:53:25.927Z,19.22
2019-05-02T21:55:47.955Z,19.20
2019-05-02T21:58:12.004Z,19.20
2019-05-02T22:00:32.848Z,19.19
2019-05-02T22:02:54.875Z,19.18
2019-05-02T22:05:16.446Z,19.16
2019-05-02T22:07:38.432Z,19.16
2019-05-02T22:10:00.065Z,19.14
2019-05-02T22:12:22.595Z,19.15
2019-05-02T22:14:44.334Z,19.13
2019-05-02T22:17:06.957Z,19.13
2019-05-02T22:19:29.671Z,19.12
2019-05-02T22:21:52.520Z,19.11
2019-05-02T22:24:14.597Z,19.09
2019-05-02T22:26:36.127Z,19.08
2019-05-02T22:28:58.393Z,19.07
2019-05-02T22:31:22.724Z,19.07
2019-05-02T22:33:44.745Z,19.06
2019-05-02T22:36:06.117Z,19.05
2019-05-02T22:38:27.866Z,19.05
2019-05-02T22:40:49.693Z,19.04
2019-05-02T22:43:12.991Z,19.04
2019-05-02T22:45:34.413Z,19.03
2019-05-02T22:47:55.400Z,19.03
2019-05-02T22:50:17.594Z,19.03
2019-05-02T22:52:39.446Z,19.02
2019-05-02T22:55:02.998Z,19.02
2019-05-02T22:57:24.425Z,19.01
2019-05-02T22:59:46.189Z,19.01
2019-05-02T23:02:08.077Z,19.00
2019-05-02T23:04:29.592Z,18.99
2019-05-02T23:06:52.936Z,18.96
2019-05-02T23:09:15.300Z,18.96
2019-05-02T23:11:36.507Z,18.96
2019-05-02T23:13:58.230Z,18.95
2019-05-02T23:16:19.851Z,18.94
2019-05-02T23:18:42.609Z,18.93
2019-05-02T23:21:04.525Z,18.94
2019-05-02T23:23:26.685Z,18.92
2019-05-02T23:25:47.866Z,18.91
2019-05-02T23:28:09.819Z,18.90
2019-05-02T23:30:31.866Z,18.90
2019-05-02T23:32:53.855Z,18.89
2019-05-02T23:35:15.070Z,18.88
2019-05-02T23:37:36.787Z,18.87
2019-05-02T23:39:58.759Z,18.87
2019-05-02T23:42:21.848Z,18.86
2019-05-02T23:44:44.341Z,18.85
2019-05-02T23:47:06.141Z,18.85
2019-05-02T23:49:28.070Z,18.84
2019-05-02T23:51:49.923Z,18.83
2019-05-02T23:54:12.835Z,18.82
2019-05-02T23:56:34.885Z,18.82
2019-05-02T23:58:56.537Z,18.81
